West Point, NY

3:37 AM EST on November 27, 2014 (GMT -0500)
Mine Hill Road | Change Station
CLOSE
Current Station
Personal Weather Station
Location: Cornwall, NY
Elevation: 1168 ft
Nearby Weather Stations

Elev 1168 ft 41.40 °N, 74.05 °W | Updated 21 seconds ago

Overcast
Overcast
29.1 °F
Feels Like 25 °F
N
4.0
Wind Variable Wind from North
Gusts 0.0 mph

Today
High -- | Low -- °F
--% Chance of Precip.
Yesterday
High -- | Low -- °F
Precip. -- in
6:58 AM 4:28 PM
Waxing Crescent, 27% visible
Pressure 29.87 in
Visibility 2.0 miles
Clouds Mostly Cloudy 900 ft
Overcast 2000 ft
Windchill 25 °F
Dew Point 28 °F
Humidity 97%
Rainfall 0.00 in
Snow Depth Not available.
UV 0 out of 12
Pollen .10 out of 12
Air Quality Not available.
Flu Activity Not available.
METAR KSWF 270645Z 03010KT 2SM -SN BKN009 OVC020 00/M01 A2987

More Conditions Fewer Conditions

Pressure 29.87 in
Visibility 2.0 miles
Clouds Mostly Cloudy 900 ft
Overcast 2000 ft
Windchill 25 °F
Dew Point 28 °F
Humidity 97%
Rainfall 0.00 in
Snow Depth Not available.
UV 0 out of 12
Pollen .10 out of 12
Air Quality Not available.
Flu Activity Not available.
METAR KSWF 270645Z 03010KT 2SM -SN BKN009 OVC020 00/M01 A2987

More Conditions Fewer Conditions

10-Day Weather Forecast

Almanac

Astronomy

Nov. 27, 2014 Rise Set
Actual Time
Civil Twilight
Nautical Twilight
Astronomical Twilight
Moon
Length of Visible Light
Length of Day
Tomorrow will be .
, % of the Moon is Illuminated

Today's Extremes

State Highs State Lows

Community

WunderPhotos

Upload Photos

1,773,965 photos uploaded!

WunderBlogs® & News

Nearby

Air Quality

  Air Quality AQ Index Pollutant
Not available.

Snow Depth

Station Depth Elevation

Earthquake Activity

City Distance Mag. Time & Date
Minimum magnitude displayed is 2.5.

Coastal Water Temperatures

Place Temperature

Nearby Weather Stations